This is the latest recevied weather packets stored in our database for station/object R1ZCU-14. If no packets are shown the sender has not sent any weather packets the latest 10 day(s).
| Time | Temp. | Humidity | Pressure | Rain* | Wind** | Luminosity | Snow |
|---|---|---|---|---|---|---|---|
| 1777655298 | 10° C | 64% | 997.4 hPa | - | - | - | - |
| 1777654698 | 10° C | 62% | 997.4 hPa | - | - | - | - |
| 1777654097 | 10.56° C | 61% | 997.4 hPa | - | - | - | - |
| 1777653497 | 11.11° C | 57% | 997.5 hPa | - | - | - | - |
| 1777652896 | 11.67° C | 58% | 997.4 hPa | - | - | - | - |
| 1777652296 | 11.11° C | 60% | 997.4 hPa | - | - | - | - |
| 1777651696 | 11.11° C | 61% | 997.5 hPa | - | - | - | - |
| 1777651095 | 11.67° C | 59% | 997.5 hPa | - | - | - | - |
| 1777650494 | 11.67° C | 60% | 997.5 hPa | - | - | - | - |
| 1777649894 | 11.67° C | 59% | 997.5 hPa | - | - | - | - |
| 1777649293 | 12.22° C | 60% | 997.5 hPa | - | - | - | - |
| 1777648693 | 11.67° C | 61% | 997.5 hPa | - | - | - | - |
| 1777648093 | 11.67° C | 61% | 997.5 hPa | - | - | - | - |
| 1777647492 | 12.22° C | 60% | 997.6 hPa | - | - | - | - |
| 1777646892 | 12.78° C | 58% | 997.6 hPa | - | - | - | - |
| 1777646291 | 12.78° C | 57% | 997.5 hPa | - | - | - | - |
| 1777645691 | 12.22° C | 59% | 997.6 hPa | - | - | - | - |
| 1777645090 | 12.78° C | 58% | 997.6 hPa | - | - | - | - |
| 1777644490 | 12.22° C | 59% | 997.7 hPa | - | - | - | - |
| 1777643889 | 12.78° C | 59% | 997.8 hPa | - | - | - | - |
| 1777643288 | 13.33° C | 56% | 997.7 hPa | - | - | - | - |
| 1777642688 | 12.78° C | 57% | 997.6 hPa | - | - | - | - |
| 1777642087 | 12.78° C | 58% | 997.9 hPa | - | - | - | - |
| 1777641487 | 12.78° C | 60% | 998 hPa | - | - | - | - |
| 1777640886 | 12.78° C | 61% | 998 hPa | - | - | - | - |
* Rain since midnight (hover to see other rain measurements)
** Current wind speed in m/s (hover to see current wind gust speed)